Time Latitude Longitude Accuracy (66% radius in meters) Altitude (meters) Speed (km/hour) Bearing (degrees) Battery (%) GPS flag
07:51:28 57.205159 60.114609 13.65299987793 298 0.88999998569489 64.5 85 1 delete
07:51:22 57.205137 60.114441 13.65299987793 297 2.6700000762939 30.700000762939 85 1 delete
07:51:21 57.205116 60.114416 13.65299987793 296 1.9700000286102 10.199999809265 85 1 delete
07:51:10 57.204987 60.114424 15.170000076294 298 0 0 85 1 delete
07:51:01 57.205040 60.114431 18.203998565674 296 2.6300001144409 167.5 85 1 delete
07:50:59 57.205115 60.114358 16.687000274658 296 2.3800001144409 222 85 1 delete
07:50:57 57.205147 60.114443 16.687000274658 297 2.9500000476837 250.80000305176 85 1 delete
07:50:54 57.205168 60.114648 15.170000076294 297 3.710000038147 263.70001220703 85 1 delete
07:50:50 57.205187 60.115039 13.65299987793 300 3.4800000190735 250 85 1 delete
07:50:48 57.205198 60.115147 13.65299987793 300 1.4500000476837 251.19999694824 85 1 delete
07:50:39 57.205253 60.115241 13.65299987793 301 1.3200000524521 155.39999389648 85 1 delete
07:50:38 57.205262 60.115230 13.65299987793 300 1.3099999427795 153.39999389648 85 1 delete
07:50:33 57.205330 60.115132 15.170000076294 302 1.7999999523163 172.60000610352 85 1 delete
07:50:28 57.205438 60.115106 15.170000076294 301 1.8700000047684 140 85 1 delete
07:50:27 57.205457 60.115071 15.170000076294 301 1.8200000524521 147.89999389648 85 1 delete
07:50:24 57.205495 60.114955 15.170000076294 299 1.6699999570847 106.90000152588 85 1 delete
07:50:19 57.205536 60.114801 15.170000076294 294 4.8499999046326 150.10000610352 85 1 delete
07:50:17 57.205623 60.114725 15.170000076294 295 4.4200000762939 139.69999694824 85 1 delete
07:50:16 57.205735 60.114638 13.65299987793 292 3.4800000190735 119.19999694824 85 1 delete
07:50:15 57.205753 60.114583 13.65299987793 292 3.4700000286102 122.19999694824 85 1 delete
07:50:11 57.205827 60.114403 13.65299987793 292 2.8399999141693 127.09999847412 85 1 delete
07:50:07 57.205912 60.114273 13.65299987793 293 2.8399999141693 143 85 1 delete
07:50:05 57.205965 60.114217 13.65299987793 294 2.6900000572205 141.30000305176 85 1 delete
07:50:03 57.206004 60.114169 13.65299987793 294 1.460000038147 125.19999694824 85 1 delete
07:49:59 57.206072 60.114040 13.65299987793 295 1.6200000047684 134.30000305176 85 1 delete
07:49:54 57.206136 60.113960 13.65299987793 296 1.5 171.80000305176 85 1 delete
07:49:53 57.206153 60.113957 13.65299987793 295 1.4299999475479 188.5 85 1 delete
07:49:49 57.206241 60.114006 15.170000076294 294 2.9800000190735 194.89999389648 85 1 delete
07:49:47 57.206332 60.114029 16.687000274658 294 4.4099998474121 200.10000610352 85 1 delete
07:49:45 57.206455 60.114119 15.170000076294 293 3.1099998950958 226.19999694824 85 1 delete
07:49:43 57.206481 60.114184 15.170000076294 294 2.0499999523163 194.10000610352 85 1 delete
07:49:40 57.206564 60.114221 15.170000076294 293 1.4700000286102 125.80000305176 85 1 delete
07:49:35 57.206649 60.114161 15.170000076294 292 5.2199997901917 211.19999694824 85 1 delete
07:49:32 57.206760 60.114296 15.170000076294 293 3.7699999809265 238.39999389648 85 1 delete
07:49:31 57.206869 60.114590 15.170000076294 294 3.4200000762939 257.79998779297 85 1 delete
07:49:28 57.206894 60.114786 15.170000076294 295 2.1700000762939 273.60000610352 85 1 delete
07:49:23 57.206961 60.114968 13.65299987793 294 2.4900000095367 194.5 85 1 delete
07:49:22 57.206988 60.114993 13.65299987793 294 0 0 85 1 delete
07:49:19 57.207053 60.115038 13.65299987793 294 2.9500000476837 165.60000610352 85 1 delete
07:49:15 57.207175 60.115015 13.65299987793 294 1.6000000238419 196.30000305176 85 1 delete
07:49:11 57.207288 60.115055 13.65299987793 295 0 0 85 1 delete
07:49:09 57.207284 60.115068 13.65299987793 295 0.77999997138977 167.69999694824 85 1 delete
07:49:04 57.207378 60.115093 13.65299987793 295 0.83999997377396 189 85 1 delete
07:49:00 57.207453 60.115128 13.65299987793 297 2.7400000095367 181.30000305176 85 1 delete
07:48:59 57.207479 60.115133 13.65299987793 297 0.9200000166893 185.10000610352 85 1 delete
07:48:53 57.207572 60.115180 13.65299987793 298 1.960000038147 201.10000610352 85 1 delete
07:48:49 57.207624 60.115244 13.65299987793 298 1.5 176.19999694824 85 1 delete
07:48:45 57.207671 60.115230 13.65299987793 298 1.1599999666214 141.80000305176 85 1 delete
07:48:38 57.207699 60.115082 13.65299987793 297 1.3500000238419 83.800003051758 85 1 delete
07:48:37 57.207697 60.115056 13.65299987793 297 1.4099999666214 96.400001525879 85 1 delete